sensor_id;sensor_type;location;lat;lon;timestamp;P1;durP1;ratioP1;P2;durP2;ratioP2
20945;SDS011;10632;51.276;7.116;2022-10-15T00:00:54;4.70;;;1.80;;
20945;SDS011;10632;51.276;7.116;2022-10-15T00:03:34;3.72;;;1.60;;
20945;SDS011;10632;51.276;7.116;2022-10-15T00:06:03;5.90;;;2.08;;
20945;SDS011;10632;51.276;7.116;2022-10-15T00:08:33;3.67;;;1.60;;
20945;SDS011;10632;51.276;7.116;2022-10-15T00:11:03;4.50;;;1.73;;
20945;SDS011;10632;51.276;7.116;2022-10-15T00:13:31;2.35;;;1.08;;
20945;SDS011;10632;51.276;7.116;2022-10-15T00:16:02;2.25;;;0.95;;
20945;SDS011;10632;51.276;7.116;2022-10-15T00:18:29;4.05;;;1.77;;
20945;SDS011;10632;51.276;7.116;2022-10-15T00:20:56;4.50;;;1.85;;
20945;SDS011;10632;51.276;7.116;2022-10-15T00:23:23;4.40;;;1.35;;
20945;SDS011;10632;51.276;7.116;2022-10-15T00:25:58;1.90;;;1.00;;
20945;SDS011;10632;51.276;7.116;2022-10-15T00:28:26;3.80;;;1.20;;
20945;SDS011;10632;51.276;7.116;2022-10-15T00:30:58;2.10;;;0.98;;
20945;SDS011;10632;51.276;7.116;2022-10-15T00:33:26;3.10;;;1.25;;
20945;SDS011;10632;51.276;7.116;2022-10-15T00:36:00;5.80;;;1.88;;
20945;SDS011;10632;51.276;7.116;2022-10-15T00:38:31;4.93;;;2.08;;
20945;SDS011;10632;51.276;7.116;2022-10-15T00:40:59;3.97;;;1.63;;
20945;SDS011;10632;51.276;7.116;2022-10-15T00:43:37;5.00;;;1.23;;
20945;SDS011;10632;51.276;7.116;2022-10-15T00:46:20;4.00;;;1.80;;
20945;SDS011;10632;51.276;7.116;2022-10-15T00:48:50;3.65;;;1.38;;
20945;SDS011;10632;51.276;7.116;2022-10-15T00:51:20;5.70;;;1.80;;
20945;SDS011;10632;51.276;7.116;2022-10-15T00:53:53;3.72;;;1.85;;
20945;SDS011;10632;51.276;7.116;2022-10-15T00:56:29;3.38;;;1.52;;
20945;SDS011;10632;51.276;7.116;2022-10-15T00:58:58;4.70;;;1.75;;
20945;SDS011;10632;51.276;7.116;2022-10-15T01:01:26;2.85;;;1.25;;
20945;SDS011;10632;51.276;7.116;2022-10-15T01:03:52;4.65;;;1.23;;
20945;SDS011;10632;51.276;7.116;2022-10-15T01:06:21;3.58;;;1.65;;
20945;SDS011;10632;51.276;7.116;2022-10-15T01:08:48;4.55;;;1.65;;
20945;SDS011;10632;51.276;7.116;2022-10-15T01:11:20;4.95;;;1.40;;
20945;SDS011;10632;51.276;7.116;2022-10-15T01:14:01;4.35;;;1.77;;
20945;SDS011;10632;51.276;7.116;2022-10-15T01:16:44;3.05;;;1.48;;
20945;SDS011;10632;51.276;7.116;2022-10-15T01:19:19;2.08;;;0.85;;
20945;SDS011;10632;51.276;7.116;2022-10-15T01:21:53;2.92;;;1.42;;
20945;SDS011;10632;51.276;7.116;2022-10-15T01:24:43;3.83;;;1.90;;
20945;SDS011;10632;51.276;7.116;2022-10-15T01:27:24;3.55;;;1.50;;
20945;SDS011;10632;51.276;7.116;2022-10-15T01:32:47;2.95;;;1.58;;
20945;SDS011;10632;51.276;7.116;2022-10-15T01:35:21;5.70;;;1.77;;
20945;SDS011;10632;51.276;7.116;2022-10-15T01:37:58;3.97;;;2.00;;
20945;SDS011;10632;51.276;7.116;2022-10-15T01:40:31;2.85;;;1.10;;
20945;SDS011;10632;51.276;7.116;2022-10-15T01:43:02;3.00;;;1.40;;
20945;SDS011;10632;51.276;7.116;2022-10-15T01:45:35;4.40;;;2.08;;
20945;SDS011;10632;51.276;7.116;2022-10-15T01:48:06;2.85;;;1.80;;
20945;SDS011;10632;51.276;7.116;2022-10-15T01:50:36;3.17;;;1.50;;
20945;SDS011;10632;51.276;7.116;2022-10-15T01:53:06;4.97;;;1.83;;
20945;SDS011;10632;51.276;7.116;2022-10-15T01:55:42;3.92;;;1.48;;
20945;SDS011;10632;51.276;7.116;2022-10-15T01:58:11;4.35;;;1.60;;
20945;SDS011;10632;51.276;7.116;2022-10-15T02:00:47;4.10;;;1.77;;
20945;SDS011;10632;51.276;7.116;2022-10-15T02:03:14;1.98;;;0.95;;
20945;SDS011;10632;51.276;7.116;2022-10-15T02:05:42;2.75;;;1.50;;
20945;SDS011;10632;51.276;7.116;2022-10-15T02:08:13;2.58;;;1.33;;
20945;SDS011;10632;51.276;7.116;2022-10-15T02:10:52;3.08;;;1.50;;
20945;SDS011;10632;51.276;7.116;2022-10-15T02:13:24;5.88;;;2.03;;
20945;SDS011;10632;51.276;7.116;2022-10-15T02:16:01;4.22;;;2.10;;
20945;SDS011;10632;51.276;7.116;2022-10-15T02:18:36;4.13;;;2.03;;
20945;SDS011;10632;51.276;7.116;2022-10-15T02:21:06;4.40;;;1.80;;
20945;SDS011;10632;51.276;7.116;2022-10-15T02:23:39;5.35;;;1.33;;
20945;SDS011;10632;51.276;7.116;2022-10-15T02:26:10;5.38;;;2.42;;
20945;SDS011;10632;51.276;7.116;2022-10-15T02:28:40;5.60;;;2.40;;
20945;SDS011;10632;51.276;7.116;2022-10-15T02:31:11;4.18;;;1.60;;
20945;SDS011;10632;51.276;7.116;2022-10-15T02:33:40;3.88;;;1.58;;
20945;SDS011;10632;51.276;7.116;2022-10-15T02:36:08;4.25;;;1.80;;
20945;SDS011;10632;51.276;7.116;2022-10-15T02:38:38;3.90;;;1.50;;
20945;SDS011;10632;51.276;7.116;2022-10-15T02:41:07;5.25;;;1.67;;
20945;SDS011;10632;51.276;7.116;2022-10-15T02:43:39;4.05;;;1.90;;
20945;SDS011;10632;51.276;7.116;2022-10-15T02:46:06;3.33;;;1.55;;
20945;SDS011;10632;51.276;7.116;2022-10-15T02:48:39;2.58;;;1.52;;
20945;SDS011;10632;51.276;7.116;2022-10-15T02:51:06;5.93;;;1.48;;
20945;SDS011;10632;51.276;7.116;2022-10-15T02:53:33;5.93;;;2.00;;
20945;SDS011;10632;51.276;7.116;2022-10-15T02:56:03;5.22;;;2.10;;
20945;SDS011;10632;51.276;7.116;2022-10-15T02:58:30;4.82;;;1.83;;
20945;SDS011;10632;51.276;7.116;2022-10-15T03:00:57;3.42;;;1.52;;
20945;SDS011;10632;51.276;7.116;2022-10-15T03:03:24;7.43;;;2.35;;
20945;SDS011;10632;51.276;7.116;2022-10-15T03:05:52;6.53;;;2.28;;
20945;SDS011;10632;51.276;7.116;2022-10-15T03:08:19;4.00;;;1.92;;
20945;SDS011;10632;51.276;7.116;2022-10-15T03:10:46;4.90;;;2.05;;
20945;SDS011;10632;51.276;7.116;2022-10-15T03:13:13;6.85;;;2.40;;
20945;SDS011;10632;51.276;7.116;2022-10-15T03:15:40;4.63;;;1.90;;
20945;SDS011;10632;51.276;7.116;2022-10-15T03:18:10;6.35;;;2.33;;
20945;SDS011;10632;51.276;7.116;2022-10-15T03:20:36;3.90;;;1.83;;
20945;SDS011;10632;51.276;7.116;2022-10-15T03:23:05;4.20;;;1.75;;
20945;SDS011;10632;51.276;7.116;2022-10-15T03:25:32;5.03;;;2.30;;
20945;SDS011;10632;51.276;7.116;2022-10-15T03:27:58;5.05;;;2.22;;
20945;SDS011;10632;51.276;7.116;2022-10-15T03:30:31;7.50;;;2.70;;
20945;SDS011;10632;51.276;7.116;2022-10-15T03:32:58;7.90;;;2.67;;
20945;SDS011;10632;51.276;7.116;2022-10-15T03:35:26;5.53;;;2.10;;
20945;SDS011;10632;51.276;7.116;2022-10-15T03:37:53;5.55;;;2.60;;
20945;SDS011;10632;51.276;7.116;2022-10-15T03:40:21;4.53;;;2.03;;
20945;SDS011;10632;51.276;7.116;2022-10-15T03:42:49;4.55;;;1.92;;
20945;SDS011;10632;51.276;7.116;2022-10-15T03:45:16;10.02;;;3.20;;
20945;SDS011;10632;51.276;7.116;2022-10-15T03:47:43;7.10;;;2.20;;
20945;SDS011;10632;51.276;7.116;2022-10-15T03:50:10;6.03;;;2.63;;
20945;SDS011;10632;51.276;7.116;2022-10-15T03:52:38;4.97;;;1.85;;
20945;SDS011;10632;51.276;7.116;2022-10-15T03:55:06;4.60;;;2.15;;
20945;SDS011;10632;51.276;7.116;2022-10-15T03:57:35;4.05;;;1.75;;
20945;SDS011;10632;51.276;7.116;2022-10-15T04:00:03;7.15;;;2.72;;
20945;SDS011;10632;51.276;7.116;2022-10-15T04:02:33;8.82;;;3.17;;
20945;SDS011;10632;51.276;7.116;2022-10-15T04:05:00;8.43;;;2.63;;
20945;SDS011;10632;51.276;7.116;2022-10-15T04:07:27;7.75;;;2.70;;
20945;SDS011;10632;51.276;7.116;2022-10-15T04:09:54;6.13;;;2.35;;
20945;SDS011;10632;51.276;7.116;2022-10-15T04:12:20;10.70;;;3.10;;
20945;SDS011;10632;51.276;7.116;2022-10-15T04:14:49;6.05;;;1.85;;
20945;SDS011;10632;51.276;7.116;2022-10-15T04:17:15;3.75;;;1.85;;
20945;SDS011;10632;51.276;7.116;2022-10-15T04:19:42;5.97;;;2.72;;
20945;SDS011;10632;51.276;7.116;2022-10-15T04:22:09;6.05;;;2.05;;
20945;SDS011;10632;51.276;7.116;2022-10-15T04:24:36;6.45;;;2.40;;
20945;SDS011;10632;51.276;7.116;2022-10-15T04:27:03;7.57;;;2.53;;
20945;SDS011;10632;51.276;7.116;2022-10-15T04:29:32;8.07;;;3.22;;
20945;SDS011;10632;51.276;7.116;2022-10-15T04:32:00;8.57;;;2.95;;
20945;SDS011;10632;51.276;7.116;2022-10-15T04:34:27;6.88;;;2.85;;
20945;SDS011;10632;51.276;7.116;2022-10-15T04:36:54;4.63;;;1.85;;
20945;SDS011;10632;51.276;7.116;2022-10-15T04:39:21;5.70;;;2.33;;
20945;SDS011;10632;51.276;7.116;2022-10-15T04:41:48;4.00;;;1.98;;
20945;SDS011;10632;51.276;7.116;2022-10-15T04:44:15;6.97;;;2.45;;
20945;SDS011;10632;51.276;7.116;2022-10-15T04:46:42;6.03;;;2.83;;
20945;SDS011;10632;51.276;7.116;2022-10-15T04:49:11;5.95;;;2.28;;
20945;SDS011;10632;51.276;7.116;2022-10-15T04:51:38;4.60;;;2.10;;
20945;SDS011;10632;51.276;7.116;2022-10-15T04:54:05;5.43;;;2.65;;
20945;SDS011;10632;51.276;7.116;2022-10-15T04:56:32;6.47;;;3.15;;
20945;SDS011;10632;51.276;7.116;2022-10-15T04:58:59;5.47;;;2.33;;
20945;SDS011;10632;51.276;7.116;2022-10-15T05:01:26;7.55;;;2.95;;
20945;SDS011;10632;51.276;7.116;2022-10-15T05:03:53;8.25;;;2.95;;
20945;SDS011;10632;51.276;7.116;2022-10-15T05:06:21;8.60;;;2.97;;
20945;SDS011;10632;51.276;7.116;2022-10-15T05:08:48;5.50;;;2.55;;
20945;SDS011;10632;51.276;7.116;2022-10-15T05:11:17;5.95;;;2.22;;
20945;SDS011;10632;51.276;7.116;2022-10-15T05:13:45;10.30;;;3.25;;
20945;SDS011;10632;51.276;7.116;2022-10-15T05:16:13;6.32;;;2.38;;
20945;SDS011;10632;51.276;7.116;2022-10-15T05:18:41;7.90;;;2.80;;
20945;SDS011;10632;51.276;7.116;2022-10-15T05:21:10;6.78;;;2.90;;
20945;SDS011;10632;51.276;7.116;2022-10-15T05:23:38;9.15;;;2.60;;
20945;SDS011;10632;51.276;7.116;2022-10-15T05:26:06;7.70;;;2.72;;
20945;SDS011;10632;51.276;7.116;2022-10-15T05:28:35;8.40;;;2.80;;
20945;SDS011;10632;51.276;7.116;2022-10-15T05:31:03;6.82;;;2.92;;
20945;SDS011;10632;51.276;7.116;2022-10-15T05:33:31;10.30;;;3.25;;
20945;SDS011;10632;51.276;7.116;2022-10-15T05:36:06;7.85;;;2.47;;
20945;SDS011;10632;51.276;7.116;2022-10-15T05:38:34;8.32;;;3.28;;
20945;SDS011;10632;51.276;7.116;2022-10-15T05:41:02;6.93;;;3.03;;
20945;SDS011;10632;51.276;7.116;2022-10-15T05:43:29;6.13;;;2.75;;
20945;SDS011;10632;51.276;7.116;2022-10-15T05:45:56;10.07;;;3.78;;
20945;SDS011;10632;51.276;7.116;2022-10-15T05:48:27;7.13;;;2.70;;
20945;SDS011;10632;51.276;7.116;2022-10-15T05:50:59;8.45;;;3.28;;
20945;SDS011;10632;51.276;7.116;2022-10-15T05:53:26;8.13;;;2.40;;
20945;SDS011;10632;51.276;7.116;2022-10-15T05:55:54;6.45;;;2.05;;
20945;SDS011;10632;51.276;7.116;2022-10-15T05:58:24;7.47;;;3.17;;
20945;SDS011;10632;51.276;7.116;2022-10-15T06:00:54;13.52;;;3.83;;
20945;SDS011;10632;51.276;7.116;2022-10-15T06:03:22;8.07;;;3.50;;
20945;SDS011;10632;51.276;7.116;2022-10-15T06:05:49;8.02;;;2.70;;
20945;SDS011;10632;51.276;7.116;2022-10-15T06:08:17;8.80;;;3.17;;
20945;SDS011;10632;51.276;7.116;2022-10-15T06:10:44;6.63;;;2.60;;
20945;SDS011;10632;51.276;7.116;2022-10-15T06:13:11;8.30;;;2.63;;
20945;SDS011;10632;51.276;7.116;2022-10-15T06:15:40;8.20;;;3.70;;
20945;SDS011;10632;51.276;7.116;2022-10-15T06:18:07;9.23;;;3.38;;
20945;SDS011;10632;51.276;7.116;2022-10-15T06:20:35;12.02;;;3.20;;
20945;SDS011;10632;51.276;7.116;2022-10-15T06:23:03;8.45;;;2.78;;
20945;SDS011;10632;51.276;7.116;2022-10-15T06:25:30;8.23;;;3.88;;
20945;SDS011;10632;51.276;7.116;2022-10-15T06:27:59;8.25;;;3.05;;
20945;SDS011;10632;51.276;7.116;2022-10-15T06:30:27;11.00;;;4.43;;
20945;SDS011;10632;51.276;7.116;2022-10-15T06:32:56;9.38;;;3.42;;
20945;SDS011;10632;51.276;7.116;2022-10-15T06:35:23;7.95;;;3.38;;
20945;SDS011;10632;51.276;7.116;2022-10-15T06:37:54;8.13;;;3.38;;
20945;SDS011;10632;51.276;7.116;2022-10-15T06:40:21;10.00;;;3.58;;
20945;SDS011;10632;51.276;7.116;2022-10-15T06:42:48;9.50;;;3.42;;
20945;SDS011;10632;51.276;7.116;2022-10-15T06:45:15;13.52;;;4.18;;
20945;SDS011;10632;51.276;7.116;2022-10-15T06:47:42;8.85;;;3.00;;
20945;SDS011;10632;51.276;7.116;2022-10-15T06:50:10;12.52;;;4.20;;
20945;SDS011;10632;51.276;7.116;2022-10-15T06:52:37;7.68;;;3.42;;
20945;SDS011;10632;51.276;7.116;2022-10-15T06:55:05;8.75;;;4.25;;
20945;SDS011;10632;51.276;7.116;2022-10-15T06:57:32;11.65;;;3.53;;
20945;SDS011;10632;51.276;7.116;2022-10-15T06:59:59;9.23;;;3.58;;
20945;SDS011;10632;51.276;7.116;2022-10-15T07:02:26;7.97;;;3.22;;
20945;SDS011;10632;51.276;7.116;2022-10-15T07:04:53;6.80;;;2.97;;
20945;SDS011;10632;51.276;7.116;2022-10-15T07:07:22;13.75;;;4.15;;
20945;SDS011;10632;51.276;7.116;2022-10-15T07:09:48;12.10;;;3.50;;
20945;SDS011;10632;51.276;7.116;2022-10-15T07:12:17;8.95;;;3.63;;
20945;SDS011;10632;51.276;7.116;2022-10-15T07:14:46;8.30;;;3.67;;
20945;SDS011;10632;51.276;7.116;2022-10-15T07:17:13;12.80;;;3.80;;
20945;SDS011;10632;51.276;7.116;2022-10-15T07:19:40;11.70;;;3.90;;
20945;SDS011;10632;51.276;7.116;2022-10-15T07:22:07;12.77;;;4.68;;
20945;SDS011;10632;51.276;7.116;2022-10-15T07:24:36;7.28;;;2.97;;
20945;SDS011;10632;51.276;7.116;2022-10-15T07:27:03;8.80;;;3.65;;
20945;SDS011;10632;51.276;7.116;2022-10-15T07:29:30;10.77;;;4.10;;
20945;SDS011;10632;51.276;7.116;2022-10-15T07:31:57;10.40;;;3.47;;
20945;SDS011;10632;51.276;7.116;2022-10-15T07:34:24;4.63;;;2.42;;
20945;SDS011;10632;51.276;7.116;2022-10-15T07:36:51;9.77;;;4.13;;
20945;SDS011;10632;51.276;7.116;2022-10-15T07:39:18;5.85;;;2.47;;
20945;SDS011;10632;51.276;7.116;2022-10-15T07:41:46;8.02;;;3.40;;
20945;SDS011;10632;51.276;7.116;2022-10-15T07:44:13;11.80;;;3.38;;
20945;SDS011;10632;51.276;7.116;2022-10-15T07:46:40;9.43;;;3.72;;
20945;SDS011;10632;51.276;7.116;2022-10-15T07:49:07;10.57;;;3.17;;
20945;SDS011;10632;51.276;7.116;2022-10-15T07:51:35;8.02;;;3.25;;
20945;SDS011;10632;51.276;7.116;2022-10-15T07:54:02;8.57;;;3.20;;
20945;SDS011;10632;51.276;7.116;2022-10-15T07:56:29;6.10;;;2.63;;
20945;SDS011;10632;51.276;7.116;2022-10-15T07:58:57;7.97;;;3.40;;
20945;SDS011;10632;51.276;7.116;2022-10-15T08:01:24;9.02;;;3.90;;
20945;SDS011;10632;51.276;7.116;2022-10-15T08:03:51;5.60;;;2.47;;
20945;SDS011;10632;51.276;7.116;2022-10-15T08:06:19;9.85;;;2.90;;
20945;SDS011;10632;51.276;7.116;2022-10-15T08:08:46;9.30;;;3.30;;
20945;SDS011;10632;51.276;7.116;2022-10-15T08:11:13;6.78;;;2.95;;
20945;SDS011;10632;51.276;7.116;2022-10-15T08:13:41;5.82;;;2.47;;
20945;SDS011;10632;51.276;7.116;2022-10-15T08:16:15;8.02;;;2.78;;
20945;SDS011;10632;51.276;7.116;2022-10-15T08:18:43;4.50;;;2.10;;
20945;SDS011;10632;51.276;7.116;2022-10-15T08:21:11;7.03;;;2.90;;
20945;SDS011;10632;51.276;7.116;2022-10-15T08:23:38;6.05;;;2.85;;
20945;SDS011;10632;51.276;7.116;2022-10-15T08:26:05;7.15;;;2.03;;
20945;SDS011;10632;51.276;7.116;2022-10-15T08:28:32;6.07;;;2.03;;
20945;SDS011;10632;51.276;7.116;2022-10-15T08:31:00;4.03;;;1.63;;
20945;SDS011;10632;51.276;7.116;2022-10-15T08:33:30;5.00;;;2.15;;
20945;SDS011;10632;51.276;7.116;2022-10-15T08:35:58;4.00;;;1.83;;
20945;SDS011;10632;51.276;7.116;2022-10-15T08:38:24;4.72;;;1.52;;
20945;SDS011;10632;51.276;7.116;2022-10-15T08:40:53;2.78;;;1.40;;
20945;SDS011;10632;51.276;7.116;2022-10-15T08:43:22;4.38;;;1.70;;
20945;SDS011;10632;51.276;7.116;2022-10-15T08:45:53;3.38;;;1.17;;
20945;SDS011;10632;51.276;7.116;2022-10-15T08:48:25;5.80;;;1.05;;
20945;SDS011;10632;51.276;7.116;2022-10-15T08:50:58;2.17;;;1.10;;
20945;SDS011;10632;51.276;7.116;2022-10-15T08:53:28;1.70;;;0.75;;
20945;SDS011;10632;51.276;7.116;2022-10-15T08:56:02;2.22;;;1.20;;
20945;SDS011;10632;51.276;7.116;2022-10-15T09:01:07;5.43;;;1.05;;
20945;SDS011;10632;51.276;7.116;2022-10-15T09:03:42;1.58;;;0.60;;
20945;SDS011;10632;51.276;7.116;2022-10-15T09:06:18;1.38;;;0.77;;
20945;SDS011;10632;51.276;7.116;2022-10-15T09:09:03;1.08;;;0.73;;
20945;SDS011;10632;51.276;7.116;2022-10-15T09:11:41;2.38;;;0.68;;
20945;SDS011;10632;51.276;7.116;2022-10-15T09:14:21;1.67;;;0.50;;
20945;SDS011;10632;51.276;7.116;2022-10-15T09:16:53;1.40;;;0.47;;
20945;SDS011;10632;51.276;7.116;2022-10-15T09:19:21;0.47;;;0.32;;
20945;SDS011;10632;51.276;7.116;2022-10-15T09:21:51;0.60;;;0.30;;
20945;SDS011;10632;51.276;7.116;2022-10-15T09:24:19;1.27;;;0.35;;
20945;SDS011;10632;51.276;7.116;2022-10-15T09:26:52;0.77;;;0.30;;
20945;SDS011;10632;51.276;7.116;2022-10-15T09:29:29;0.65;;;0.30;;
20945;SDS011;10632;51.276;7.116;2022-10-15T09:32:09;0.80;;;0.32;;
20945;SDS011;10632;51.276;7.116;2022-10-15T09:34:46;0.63;;;0.30;;
20945;SDS011;10632;51.276;7.116;2022-10-15T09:37:20;0.55;;;0.30;;
20945;SDS011;10632;51.276;7.116;2022-10-15T09:39:59;0.15;;;0.10;;
20945;SDS011;10632;51.276;7.116;2022-10-15T09:42:39;0.88;;;0.30;;
20945;SDS011;10632;51.276;7.116;2022-10-15T09:45:11;0.50;;;0.20;;
20945;SDS011;10632;51.276;7.116;2022-10-15T09:47:40;0.35;;;0.20;;
20945;SDS011;10632;51.276;7.116;2022-10-15T09:50:11;0.68;;;0.28;;
20945;SDS011;10632;51.276;7.116;2022-10-15T09:55:40;0.50;;;0.30;;
20945;SDS011;10632;51.276;7.116;2022-10-15T09:58:13;0.20;;;0.10;;
20945;SDS011;10632;51.276;7.116;2022-10-15T10:00:54;0.38;;;0.30;;
20945;SDS011;10632;51.276;7.116;2022-10-15T10:03:24;0.68;;;0.20;;
20945;SDS011;10632;51.276;7.116;2022-10-15T10:05:58;0.63;;;0.20;;
20945;SDS011;10632;51.276;7.116;2022-10-15T10:08:30;1.20;;;0.38;;
20945;SDS011;10632;51.276;7.116;2022-10-15T10:11:04;1.08;;;0.40;;
20945;SDS011;10632;51.276;7.116;2022-10-15T10:13:37;0.50;;;0.25;;
20945;SDS011;10632;51.276;7.116;2022-10-15T10:16:08;0.45;;;0.25;;
20945;SDS011;10632;51.276;7.116;2022-10-15T10:18:36;0.43;;;0.20;;
20945;SDS011;10632;51.276;7.116;2022-10-15T10:21:20;0.68;;;0.30;;
20945;SDS011;10632;51.276;7.116;2022-10-15T10:23:51;0.50;;;0.20;;
20945;SDS011;10632;51.276;7.116;2022-10-15T10:26:18;0.95;;;0.20;;
20945;SDS011;10632;51.276;7.116;2022-10-15T10:28:48;0.63;;;0.22;;
20945;SDS011;10632;51.276;7.116;2022-10-15T10:31:21;0.80;;;0.20;;
20945;SDS011;10632;51.276;7.116;2022-10-15T10:34:09;1.23;;;0.20;;
20945;SDS011;10632;51.276;7.116;2022-10-15T10:36:42;0.20;;;0.13;;
20945;SDS011;10632;51.276;7.116;2022-10-15T10:42:06;0.30;;;0.20;;
20945;SDS011;10632;51.276;7.116;2022-10-15T10:44:48;1.20;;;0.25;;
20945;SDS011;10632;51.276;7.116;2022-10-15T10:47:24;0.47;;;0.17;;
20945;SDS011;10632;51.276;7.116;2022-10-15T10:50:02;4.65;;;0.30;;
20945;SDS011;10632;51.276;7.116;2022-10-15T10:52:56;0.13;;;0.10;;
20945;SDS011;10632;51.276;7.116;2022-10-15T10:55:39;0.20;;;0.10;;
20945;SDS011;10632;51.276;7.116;2022-10-15T10:58:12;0.30;;;0.17;;
20945;SDS011;10632;51.276;7.116;2022-10-15T11:00:57;0.52;;;0.20;;
20945;SDS011;10632;51.276;7.116;2022-10-15T11:03:31;0.15;;;0.10;;
20945;SDS011;10632;51.276;7.116;2022-10-15T11:06:07;0.43;;;0.10;;
20945;SDS011;10632;51.276;7.116;2022-10-15T11:08:53;0.73;;;0.20;;
20945;SDS011;10632;51.276;7.116;2022-10-15T11:11:40;1.23;;;0.65;;
20945;SDS011;10632;51.276;7.116;2022-10-15T11:14:19;0.30;;;0.20;;
20945;SDS011;10632;51.276;7.116;2022-10-15T11:16:54;0.55;;;0.30;;
20945;SDS011;10632;51.276;7.116;2022-10-15T11:19:33;0.75;;;0.30;;
20945;SDS011;10632;51.276;7.116;2022-10-15T11:22:20;0.63;;;0.20;;
20945;SDS011;10632;51.276;7.116;2022-10-15T11:25:13;1.52;;;0.50;;
20945;SDS011;10632;51.276;7.116;2022-10-15T11:28:00;0.70;;;0.30;;
20945;SDS011;10632;51.276;7.116;2022-10-15T11:30:47;1.10;;;0.40;;
20945;SDS011;10632;51.276;7.116;2022-10-15T11:33:24;0.17;;;0.10;;
20945;SDS011;10632;51.276;7.116;2022-10-15T11:36:15;1.45;;;0.32;;
20945;SDS011;10632;51.276;7.116;2022-10-15T11:38:59;0.30;;;0.20;;
20945;SDS011;10632;51.276;7.116;2022-10-15T11:41:38;0.20;;;0.20;;
20945;SDS011;10632;51.276;7.116;2022-10-15T11:44:19;0.32;;;0.20;;
20945;SDS011;10632;51.276;7.116;2022-10-15T11:46:53;0.52;;;0.20;;
20945;SDS011;10632;51.276;7.116;2022-10-15T11:49:40;0.98;;;0.20;;
20945;SDS011;10632;51.276;7.116;2022-10-15T11:52:21;0.60;;;0.30;;
20945;SDS011;10632;51.276;7.116;2022-10-15T11:55:00;0.80;;;0.30;;
20945;SDS011;10632;51.276;7.116;2022-10-15T11:57:30;1.10;;;0.40;;
20945;SDS011;10632;51.276;7.116;2022-10-15T12:00:03;0.60;;;0.30;;
20945;SDS011;10632;51.276;7.116;2022-10-15T12:02:38;0.80;;;0.40;;
20945;SDS011;10632;51.276;7.116;2022-10-15T12:05:05;0.30;;;0.13;;
20945;SDS011;10632;51.276;7.116;2022-10-15T12:07:36;0.73;;;0.30;;
20945;SDS011;10632;51.276;7.116;2022-10-15T12:10:12;0.30;;;0.17;;
20945;SDS011;10632;51.276;7.116;2022-10-15T12:12:52;0.60;;;0.32;;
20945;SDS011;10632;51.276;7.116;2022-10-15T12:15:30;0.90;;;0.25;;
20945;SDS011;10632;51.276;7.116;2022-10-15T12:18:09;0.95;;;0.30;;
20945;SDS011;10632;51.276;7.116;2022-10-15T12:20:43;0.40;;;0.10;;
20945;SDS011;10632;51.276;7.116;2022-10-15T12:23:21;5.15;;;0.40;;
20945;SDS011;10632;51.276;7.116;2022-10-15T12:25:49;1.05;;;0.30;;
20945;SDS011;10632;51.276;7.116;2022-10-15T12:28:20;0.47;;;0.20;;
20945;SDS011;10632;51.276;7.116;2022-10-15T12:31:02;1.00;;;0.38;;
20945;SDS011;10632;51.276;7.116;2022-10-15T12:33:34;0.43;;;0.20;;
20945;SDS011;10632;51.276;7.116;2022-10-15T12:36:05;0.63;;;0.20;;
20945;SDS011;10632;51.276;7.116;2022-10-15T12:38:55;0.63;;;0.20;;
20945;SDS011;10632;51.276;7.116;2022-10-15T12:41:35;0.55;;;0.35;;
20945;SDS011;10632;51.276;7.116;2022-10-15T12:44:04;0.55;;;0.20;;
20945;SDS011;10632;51.276;7.116;2022-10-15T12:46:35;1.00;;;0.40;;
20945;SDS011;10632;51.276;7.116;2022-10-15T12:55:19;0.40;;;0.20;;
20945;SDS011;10632;51.276;7.116;2022-10-15T12:57:56;0.63;;;0.20;;
20945;SDS011;10632;51.276;7.116;2022-10-15T13:00:36;0.63;;;0.20;;
20945;SDS011;10632;51.276;7.116;2022-10-15T13:06:23;0.20;;;0.20;;
20945;SDS011;10632;51.276;7.116;2022-10-15T13:08:58;0.25;;;0.15;;
20945;SDS011;10632;51.276;7.116;2022-10-15T13:11:41;1.33;;;0.35;;
20945;SDS011;10632;51.276;7.116;2022-10-15T13:14:25;1.05;;;0.30;;
20945;SDS011;10632;51.276;7.116;2022-10-15T13:16:55;0.93;;;0.40;;
20945;SDS011;10632;51.276;7.116;2022-10-15T13:19:24;0.43;;;0.30;;
20945;SDS011;10632;51.276;7.116;2022-10-15T13:22:02;0.70;;;0.20;;
20945;SDS011;10632;51.276;7.116;2022-10-15T13:24:38;1.38;;;0.40;;
20945;SDS011;10632;51.276;7.116;2022-10-15T13:27:12;0.98;;;0.40;;
20945;SDS011;10632;51.276;7.116;2022-10-15T13:29:51;1.17;;;0.52;;
20945;SDS011;10632;51.276;7.116;2022-10-15T13:32:20;0.35;;;0.20;;
20945;SDS011;10632;51.276;7.116;2022-10-15T13:34:54;0.82;;;0.40;;
20945;SDS011;10632;51.276;7.116;2022-10-15T13:37:25;0.57;;;0.30;;
20945;SDS011;10632;51.276;7.116;2022-10-15T13:39:56;0.63;;;0.20;;
20945;SDS011;10632;51.276;7.116;2022-10-15T13:42:27;3.50;;;0.88;;
20945;SDS011;10632;51.276;7.116;2022-10-15T13:44:59;0.10;;;0.10;;
20945;SDS011;10632;51.276;7.116;2022-10-15T13:47:34;0.40;;;0.25;;
20945;SDS011;10632;51.276;7.116;2022-10-15T13:50:23;0.75;;;0.17;;
20945;SDS011;10632;51.276;7.116;2022-10-15T13:53:00;0.15;;;0.05;;
20945;SDS011;10632;51.276;7.116;2022-10-15T13:55:43;1.30;;;0.20;;
20945;SDS011;10632;51.276;7.116;2022-10-15T13:58:40;1.10;;;0.30;;
20945;SDS011;10632;51.276;7.116;2022-10-15T14:01:26;2.85;;;0.52;;
20945;SDS011;10632;51.276;7.116;2022-10-15T14:04:16;0.25;;;0.20;;
20945;SDS011;10632;51.276;7.116;2022-10-15T14:07:17;0.60;;;0.28;;
20945;SDS011;10632;51.276;7.116;2022-10-15T14:09:53;0.68;;;0.30;;
20945;SDS011;10632;51.276;7.116;2022-10-15T14:12:29;0.40;;;0.20;;
20945;SDS011;10632;51.276;7.116;2022-10-15T14:15:10;0.40;;;0.20;;
20945;SDS011;10632;51.276;7.116;2022-10-15T14:18:25;0.70;;;0.20;;
20945;SDS011;10632;51.276;7.116;2022-10-15T14:20:55;0.45;;;0.25;;
20945;SDS011;10632;51.276;7.116;2022-10-15T14:23:24;0.50;;;0.28;;
20945;SDS011;10632;51.276;7.116;2022-10-15T14:25:57;0.50;;;0.22;;
20945;SDS011;10632;51.276;7.116;2022-10-15T14:28:26;2.75;;;0.52;;
20945;SDS011;10632;51.276;7.116;2022-10-15T14:30:56;1.15;;;0.50;;
20945;SDS011;10632;51.276;7.116;2022-10-15T14:33:38;0.38;;;0.20;;
20945;SDS011;10632;51.276;7.116;2022-10-15T14:36:10;1.40;;;0.47;;
20945;SDS011;10632;51.276;7.116;2022-10-15T14:38:48;0.60;;;0.20;;
20945;SDS011;10632;51.276;7.116;2022-10-15T14:41:25;0.90;;;0.30;;
20945;SDS011;10632;51.276;7.116;2022-10-15T14:44:04;0.75;;;0.30;;
20945;SDS011;10632;51.276;7.116;2022-10-15T14:46:58;0.60;;;0.20;;
20945;SDS011;10632;51.276;7.116;2022-10-15T14:49:29;0.65;;;0.28;;
20945;SDS011;10632;51.276;7.116;2022-10-15T14:52:09;0.82;;;0.25;;
20945;SDS011;10632;51.276;7.116;2022-10-15T14:54:39;0.45;;;0.20;;
20945;SDS011;10632;51.276;7.116;2022-10-15T14:57:43;1.20;;;0.45;;
20945;SDS011;10632;51.276;7.116;2022-10-15T15:00:23;1.20;;;0.50;;
20945;SDS011;10632;51.276;7.116;2022-10-15T15:03:13;3.05;;;0.30;;
20945;SDS011;10632;51.276;7.116;2022-10-15T15:05:45;1.25;;;0.45;;
20945;SDS011;10632;51.276;7.116;2022-10-15T15:08:17;0.57;;;0.22;;
20945;SDS011;10632;51.276;7.116;2022-10-15T15:10:47;0.30;;;0.20;;
20945;SDS011;10632;51.276;7.116;2022-10-15T15:13:21;0.63;;;0.30;;
20945;SDS011;10632;51.276;7.116;2022-10-15T15:16:15;0.90;;;0.35;;
20945;SDS011;10632;51.276;7.116;2022-10-15T15:18:45;1.23;;;0.47;;
20945;SDS011;10632;51.276;7.116;2022-10-15T15:21:16;7.63;;;0.38;;
20945;SDS011;10632;51.276;7.116;2022-10-15T15:23:48;0.93;;;0.30;;
20945;SDS011;10632;51.276;7.116;2022-10-15T15:26:22;1.73;;;0.30;;
20945;SDS011;10632;51.276;7.116;2022-10-15T15:29:04;0.65;;;0.30;;
20945;SDS011;10632;51.276;7.116;2022-10-15T15:34:19;0.40;;;0.20;;
20945;SDS011;10632;51.276;7.116;2022-10-15T15:37:17;0.35;;;0.20;;
20945;SDS011;10632;51.276;7.116;2022-10-15T15:39:51;1.77;;;0.70;;
20945;SDS011;10632;51.276;7.116;2022-10-15T15:42:23;0.88;;;0.30;;